createdAt,value
2023-03-22T00:01:33.556Z,0
2023-03-22T00:03:34.900Z,0
2023-03-22T00:05:36.469Z,0
2023-03-22T00:07:38.173Z,0
2023-03-22T00:09:40.002Z,0
2023-03-22T00:11:41.888Z,0
2023-03-22T00:13:43.429Z,0
2023-03-22T00:15:45.451Z,0
2023-03-22T00:17:46.412Z,0
2023-03-22T00:19:47.905Z,0
2023-03-22T00:21:49.232Z,0
2023-03-22T00:23:50.475Z,0
2023-03-22T00:25:52.404Z,0
2023-03-22T00:27:53.602Z,0
2023-03-22T00:29:55.558Z,0
2023-03-22T00:31:56.843Z,0
2023-03-22T00:33:58.804Z,0
2023-03-22T00:36:00.435Z,0
2023-03-22T00:38:02.375Z,0
2023-03-22T00:40:03.747Z,0
2023-03-22T00:42:04.805Z,0
2023-03-22T00:44:06.740Z,0
2023-03-22T00:46:08.278Z,0
2023-03-22T00:48:09.378Z,0
2023-03-22T00:50:11.168Z,0
2023-03-22T00:52:12.837Z,0
2023-03-22T00:54:14.490Z,0
2023-03-22T00:56:16.284Z,0
2023-03-22T00:58:17.974Z,0
2023-03-22T01:00:19.791Z,0
2023-03-22T01:02:21.066Z,0
2023-03-22T01:04:22.085Z,0
2023-03-22T01:06:23.307Z,0
2023-03-22T01:08:24.864Z,0
2023-03-22T01:10:26.522Z,0
2023-03-22T01:12:27.850Z,0
2023-03-22T01:14:29.832Z,0
2023-03-22T01:16:31.716Z,0
2023-03-22T01:18:33.156Z,0
2023-03-22T01:22:36.222Z,0
2023-03-22T01:24:37.952Z,0
2023-03-22T01:26:39.177Z,0
2023-03-22T01:28:40.648Z,0
2023-03-22T01:30:42.159Z,0
2023-03-22T01:32:42.828Z,0
2023-03-22T01:34:44.309Z,0
2023-03-22T01:36:46.030Z,0
2023-03-22T01:38:47.348Z,0
2023-03-22T01:40:48.439Z,0
2023-03-22T01:42:49.856Z,0
2023-03-22T01:44:50.795Z,0
2023-03-22T01:46:52.103Z,0
2023-03-22T01:49:01.506Z,0
2023-03-22T01:50:55.294Z,0
2023-03-22T01:52:56.766Z,0
2023-03-22T01:54:57.948Z,0
2023-03-22T01:56:59.302Z,0
2023-03-22T01:59:00.674Z,0
2023-03-22T02:01:02.560Z,0
2023-03-22T02:03:04.409Z,0
2023-03-22T02:05:05.877Z,0
2023-03-22T02:07:07.308Z,0
2023-03-22T02:09:09.003Z,0
2023-03-22T02:11:10.612Z,0
2023-03-22T02:13:12.214Z,0
2023-03-22T02:15:14.034Z,0
2023-03-22T02:17:15.335Z,0
2023-03-22T02:19:17.181Z,0
2023-03-22T02:21:18.322Z,0
2023-03-22T02:23:19.584Z,0
2023-03-22T02:25:20.667Z,0
2023-03-22T02:27:21.763Z,0
2023-03-22T02:29:23.272Z,0
2023-03-22T02:31:24.712Z,0.421
2023-03-22T02:33:25.814Z,0
2023-03-22T02:35:27.134Z,0
2023-03-22T02:37:28.486Z,0
2023-03-22T02:39:29.809Z,0
2023-03-22T02:41:31.563Z,0
2023-03-22T02:43:33.514Z,0
2023-03-22T02:45:35.191Z,0
2023-03-22T02:47:37.006Z,0
2023-03-22T02:49:38.726Z,0
2023-03-22T02:53:42.223Z,0
2023-03-22T02:55:43.896Z,0.561
2023-03-22T02:57:44.985Z,0
2023-03-22T02:59:46.919Z,0
2023-03-22T03:03:50.190Z,0
2023-03-22T03:04:34.054Z,0
2023-03-22T03:06:35.104Z,0
2023-03-22T03:08:36.793Z,0
2023-03-22T03:10:38.971Z,2.527
2023-03-22T03:12:40.384Z,0.14
2023-03-22T03:14:42.343Z,0
2023-03-22T03:16:44.191Z,0
2023-03-22T03:18:45.616Z,0
2023-03-22T03:20:47.264Z,0
2023-03-22T03:22:48.862Z,0
2023-03-22T03:24:50.698Z,0
2023-03-22T03:26:51.969Z,0
2023-03-22T03:30:54.910Z,0
2023-03-22T03:32:56.311Z,0
2023-03-22T03:34:58.253Z,0
2023-03-22T03:36:59.825Z,0
2023-03-22T03:41:02.995Z,0.14
2023-03-22T03:43:04.684Z,0
2023-03-22T03:45:06.225Z,1.684
2023-03-22T03:47:07.449Z,0.14
2023-03-22T03:49:09.415Z,0
2023-03-22T03:53:12.245Z,0
2023-03-22T03:55:13.518Z,0.982
2023-03-22T03:57:14.612Z,0.561
2023-03-22T03:59:16.291Z,0
2023-03-22T04:01:18.155Z,1.263
2023-03-22T04:03:19.280Z,1.684
2023-03-22T04:05:20.331Z,1.684
2023-03-22T04:07:22.235Z,1.965
2023-03-22T04:09:23.756Z,0.982
2023-03-22T04:11:33.678Z,0.561
2023-03-22T04:13:27.454Z,1.404
2023-03-22T04:15:29.333Z,0.14
2023-03-22T04:17:30.600Z,0
2023-03-22T04:19:31.989Z,0.14
2023-03-22T04:23:35.780Z,0
2023-03-22T04:25:37.660Z,2.106
2023-03-22T04:27:38.839Z,0
2023-03-22T04:29:40.532Z,0.421
2023-03-22T04:31:42.230Z,0
2023-03-22T04:33:43.961Z,0
2023-03-22T04:35:44.934Z,0.28
2023-03-22T04:37:46.291Z,0
2023-03-22T04:39:47.758Z,0
2023-03-22T04:41:49.151Z,0
2023-03-22T04:43:50.658Z,0
2023-03-22T04:45:52.511Z,2.246
2023-03-22T04:47:54.271Z,2.106
2023-03-22T04:49:56.185Z,0
2023-03-22T04:51:57.491Z,0
2023-03-22T04:55:59.639Z,1.965
2023-03-22T04:58:00.964Z,0.14
2023-03-22T05:00:02.465Z,0.14
2023-03-22T05:02:03.505Z,0
2023-03-22T05:04:04.918Z,0.702
2023-03-22T05:06:06.519Z,0
2023-03-22T05:08:07.726Z,0
2023-03-22T05:10:09.437Z,1.123
2023-03-22T05:12:10.683Z,0
2023-03-22T05:14:11.913Z,2.246
2023-03-22T05:16:13.225Z,0.421
2023-03-22T05:18:14.937Z,1.965
2023-03-22T05:20:16.555Z,1.404
2023-03-22T05:22:18.050Z,0.421
2023-03-22T05:24:19.628Z,0
2023-03-22T05:28:22.480Z,0.421
2023-03-22T05:30:24.140Z,0.421
2023-03-22T05:32:25.782Z,0
2023-03-22T05:34:27.753Z,0
2023-03-22T05:38:31.033Z,0.702
2023-03-22T05:40:32.060Z,1.825
2023-03-22T05:42:33.992Z,1.825
2023-03-22T05:44:35.702Z,0
2023-03-22T05:46:37.609Z,0
2023-03-22T05:50:40.676Z,0
2023-03-22T05:52:42.316Z,0
2023-03-22T05:54:43.966Z,0
2023-03-22T05:56:46.121Z,0
2023-03-22T05:58:47.722Z,0
2023-03-22T06:00:49.233Z,0
2023-03-22T06:02:50.511Z,0
2023-03-22T06:04:52.301Z,0
2023-03-22T06:06:54.205Z,0
2023-03-22T06:10:56.901Z,0
2023-03-22T06:12:58.232Z,0
2023-03-22T06:14:59.474Z,0
2023-03-22T06:17:00.388Z,0
2023-03-22T06:21:03.238Z,0
2023-03-22T06:23:05.147Z,0
2023-03-22T06:25:06.336Z,0
2023-03-22T06:27:07.802Z,0
2023-03-22T06:29:09.596Z,0
2023-03-22T06:31:10.886Z,0.561
2023-03-22T06:33:12.167Z,0.561
2023-03-22T06:35:14.067Z,0.842
2023-03-22T06:37:15.285Z,0.421
2023-03-22T06:39:16.641Z,0.561
2023-03-22T06:41:17.836Z,0.14
2023-03-22T06:43:18.910Z,0
2023-03-22T06:45:20.285Z,1.404
2023-03-22T06:47:21.284Z,0.14
2023-03-22T06:49:22.806Z,2.386
2023-03-22T06:51:24.313Z,0
2023-03-22T06:53:25.414Z,0.842
2023-03-22T06:55:27.279Z,1.684
2023-03-22T06:57:28.758Z,4.773
2023-03-22T06:59:29.856Z,0
2023-03-22T07:01:31.566Z,2.246
2023-03-22T07:03:32.615Z,2.386
2023-03-22T07:05:33.685Z,0.421
2023-03-22T07:07:35.114Z,0.14
2023-03-22T07:09:36.282Z,0.28
2023-03-22T07:11:37.900Z,1.263
2023-03-22T07:13:39.197Z,1.263
2023-03-22T07:15:40.540Z,0
2023-03-22T07:17:41.686Z,0
2023-03-22T07:19:42.695Z,0.14
2023-03-22T07:21:43.709Z,0
2023-03-22T07:23:45.048Z,0
2023-03-22T07:25:46.126Z,0
2023-03-22T07:27:47.431Z,0
2023-03-22T07:29:48.763Z,0
2023-03-22T07:31:50.208Z,0
2023-03-22T07:33:50.865Z,0
2023-03-22T07:35:52.715Z,0.561
2023-03-22T07:37:54.250Z,0
2023-03-22T07:39:55.126Z,0.421
2023-03-22T07:41:56.568Z,0
2023-03-22T07:44:07.865Z,0
2023-03-22T07:45:58.965Z,0.421
2023-03-22T07:48:00.199Z,0.14
2023-03-22T07:52:02.266Z,3.229
2023-03-22T07:54:03.618Z,0.14
2023-03-22T07:56:05.706Z,1.123
2023-03-22T07:58:07.010Z,5.335
2023-03-22T08:00:17.459Z,2.527
2023-03-22T08:02:10.032Z,2.948
2023-03-22T08:04:11.463Z,1.404
2023-03-22T08:06:12.389Z,0.982
2023-03-22T08:08:13.319Z,0.14
2023-03-22T08:10:14.655Z,1.123
2023-03-22T08:12:15.316Z,0.14
2023-03-22T08:14:18.492Z,1.544
2023-03-22T08:16:17.800Z,2.667
2023-03-22T08:18:19.222Z,0
2023-03-22T08:20:20.709Z,0.14
2023-03-22T08:24:23.594Z,3.229
2023-03-22T08:26:25.308Z,4.773
2023-03-22T08:28:26.745Z,5.756
2023-03-22T08:30:29.017Z,4.212
2023-03-22T08:34:31.539Z,7.581
2023-03-22T08:36:32.849Z,6.318
2023-03-22T08:38:33.945Z,5.756
2023-03-22T08:40:35.075Z,8.564
2023-03-22T08:44:37.969Z,7.581
2023-03-22T08:46:38.944Z,7.16
2023-03-22T08:48:41.647Z,5.756
2023-03-22T08:50:42.967Z,3.369
2023-03-22T08:52:45.463Z,8.704
2023-03-22T08:54:46.875Z,3.79
2023-03-22T08:56:47.778Z,6.879
2023-03-22T08:58:49.554Z,9.687
2023-03-22T09:00:50.705Z,8.424
2023-03-22T09:02:51.969Z,11.934
2023-03-22T09:04:54.225Z,11.653
2023-03-22T09:06:55.096Z,10.249
2023-03-22T09:08:56.840Z,6.318
2023-03-22T09:10:59.524Z,10.389
2023-03-22T09:12:59.922Z,6.458
2023-03-22T09:15:01.868Z,9.687
2023-03-22T09:17:03.300Z,8.704
2023-03-22T09:19:04.952Z,4.492
2023-03-22T09:21:05.901Z,5.054
2023-03-22T09:23:07.510Z,13.338
2023-03-22T09:27:17.853Z,10.67
2023-03-22T09:29:10.894Z,6.458
2023-03-22T09:31:12.221Z,13.338
2023-03-22T09:33:13.725Z,7.3
2023-03-22T09:35:33.447Z,10.951
2023-03-22T09:37:16.420Z,12.074
2023-03-22T09:39:17.859Z,13.759
2023-03-22T09:41:18.816Z,7.722
2023-03-22T09:43:19.845Z,13.478
2023-03-22T09:45:21.600Z,8.704
2023-03-22T09:47:22.629Z,9.126
2023-03-22T09:49:24.433Z,6.598
2023-03-22T09:50:28.319Z,10.108
2023-03-22T09:52:09.772Z,15.303
2023-03-22T09:54:10.692Z,12.074
2023-03-22T09:56:12.192Z,13.478
2023-03-22T09:58:21.384Z,11.934
2023-03-22T10:00:23.422Z,11.934
2023-03-22T10:02:15.627Z,12.776
2023-03-22T10:04:16.852Z,11.512
2023-03-22T10:06:17.697Z,10.108
2023-03-22T10:10:20.330Z,9.266
2023-03-22T10:12:21.036Z,14.04
2023-03-22T10:14:31.612Z,16.286
2023-03-22T10:16:24.241Z,9.687
2023-03-22T10:20:27.565Z,15.303
2023-03-22T10:22:29.289Z,13.338
2023-03-22T10:24:31.045Z,14.601
2023-03-22T10:26:32.040Z,18.111
2023-03-22T10:28:33.456Z,13.899
2023-03-22T10:32:42.778Z,11.512
2023-03-22T10:34:37.786Z,12.495
2023-03-22T10:36:39.316Z,9.406
2023-03-22T10:38:40.355Z,11.091
2023-03-22T10:42:42.970Z,14.461
2023-03-22T10:44:44.725Z,13.759
2023-03-22T10:46:46.657Z,6.598
2023-03-22T10:48:47.645Z,8.424
2023-03-22T10:52:50.681Z,12.495
2023-03-22T10:54:51.637Z,8.283
2023-03-22T10:56:52.527Z,8.002
2023-03-22T10:58:53.473Z,10.108
2023-03-22T11:00:55.316Z,10.389
2023-03-22T11:02:57.036Z,6.879
2023-03-22T11:04:58.111Z,9.687
2023-03-22T11:06:59.658Z,9.266
2023-03-22T11:09:01.064Z,7.862
2023-03-22T11:11:02.460Z,10.53
2023-03-22T11:13:03.986Z,7.722
2023-03-22T11:15:05.451Z,8.845
2023-03-22T11:17:06.373Z,8.002
2023-03-22T11:19:07.819Z,13.197
2023-03-22T11:21:08.982Z,11.232
2023-03-22T11:23:10.467Z,9.547
2023-03-22T11:25:11.456Z,14.461
2023-03-22T11:27:13.173Z,12.495
2023-03-22T11:29:14.980Z,10.249
2023-03-22T11:31:16.837Z,8.424
2023-03-22T11:33:18.169Z,11.232
2023-03-22T11:35:19.042Z,1.825
2023-03-22T11:37:20.305Z,2.527
2023-03-22T11:39:22.113Z,12.214
2023-03-22T11:41:23.552Z,7.722
2023-03-22T11:43:24.923Z,7.3
2023-03-22T11:45:26.638Z,9.126
2023-03-22T11:47:27.515Z,5.194
2023-03-22T11:49:28.947Z,3.369
2023-03-22T11:51:30.512Z,5.194
2023-03-22T11:53:32.263Z,6.739
2023-03-22T11:55:33.226Z,6.177
2023-03-22T11:57:34.663Z,11.232
2023-03-22T11:59:35.925Z,8.704
2023-03-22T12:01:37.054Z,9.266
2023-03-22T12:03:39.399Z,3.51
2023-03-22T12:05:40.117Z,6.318
2023-03-22T12:07:41.363Z,6.458
2023-03-22T12:09:42.722Z,10.53
2023-03-22T12:11:43.629Z,11.372
2023-03-22T12:13:45.444Z,6.037
2023-03-22T12:15:48.083Z,7.862
2023-03-22T12:17:49.424Z,6.037
2023-03-22T12:19:50.741Z,2.808
2023-03-22T12:21:51.794Z,4.492
2023-03-22T12:23:53.674Z,2.948
2023-03-22T12:25:55.016Z,3.51
2023-03-22T12:27:56.558Z,10.67
2023-03-22T12:29:57.512Z,12.776
2023-03-22T12:33:59.993Z,7.441
2023-03-22T12:36:01.814Z,9.406
2023-03-22T12:38:03.025Z,7.581
2023-03-22T12:40:04.735Z,9.126
2023-03-22T12:44:07.305Z,9.968
2023-03-22T12:46:08.408Z,8.143
2023-03-22T12:48:10.241Z,10.67
2023-03-22T12:50:11.156Z,13.197
2023-03-22T12:52:12.733Z,11.372
2023-03-22T12:56:15.481Z,9.126
2023-03-22T12:58:17.030Z,5.194
2023-03-22T13:00:18.812Z,8.845
2023-03-22T13:02:20.201Z,2.808
2023-03-22T13:06:23.219Z,9.687
2023-03-22T13:08:24.411Z,6.739
2023-03-22T13:10:25.254Z,7.722
2023-03-22T13:12:26.210Z,8.283
2023-03-22T13:16:28.370Z,6.318
2023-03-22T13:18:31.879Z,3.931
2023-03-22T13:20:31.004Z,9.828
2023-03-22T13:22:32.841Z,7.16
2023-03-22T13:24:33.714Z,6.318
2023-03-22T13:26:34.954Z,10.389
2023-03-22T13:28:36.219Z,5.054
2023-03-22T13:30:37.172Z,7.862
2023-03-22T13:32:38.532Z,4.212
2023-03-22T13:34:39.623Z,8.424
2023-03-22T13:36:40.700Z,7.862
2023-03-22T13:38:42.478Z,7.02
2023-03-22T13:40:43.330Z,13.338
2023-03-22T13:42:44.821Z,8.985
2023-03-22T13:44:46.452Z,11.512
2023-03-22T13:46:47.481Z,8.564
2023-03-22T13:48:49.638Z,5.896
2023-03-22T13:50:50.228Z,7.16
2023-03-22T13:52:51.610Z,8.564
2023-03-22T13:54:52.648Z,7.02
2023-03-22T13:56:53.560Z,4.773
2023-03-22T13:58:54.875Z,7.441
2023-03-22T14:00:56.007Z,8.143
2023-03-22T14:02:56.983Z,7.862
2023-03-22T14:04:58.564Z,3.79
2023-03-22T14:06:59.692Z,6.037
2023-03-22T14:09:01.251Z,6.458
2023-03-22T14:11:02.820Z,7.441
2023-03-22T14:15:05.761Z,6.177
2023-03-22T14:17:06.901Z,12.636
2023-03-22T14:19:08.121Z,9.968
2023-03-22T14:21:09.314Z,10.53
2023-03-22T14:53:31.804Z,5.335
2023-03-22T14:59:35.953Z,9.266
2023-03-22T15:03:38.059Z,12.214
2023-03-22T15:09:41.127Z,7.02
2023-03-22T15:13:43.679Z,6.318
2023-03-22T15:15:45.274Z,5.896
2023-03-22T15:19:48.971Z,10.108
2023-03-22T15:23:51.293Z,8.002
2023-03-22T15:25:52.844Z,7.441
2023-03-22T15:29:55.399Z,11.512
2023-03-22T15:35:59.685Z,7.3
2023-03-22T15:40:02.638Z,12.636
2023-03-22T15:42:03.446Z,13.197
2023-03-22T15:46:06.042Z,9.406
2023-03-22T15:52:09.766Z,7.722
2023-03-22T15:56:11.698Z,8.002
2023-03-22T15:58:13.293Z,6.177
2023-03-22T16:02:16.540Z,12.214
2023-03-22T16:06:19.250Z,9.828
2023-03-22T16:08:20.263Z,7.441
2023-03-22T16:12:22.894Z,3.931
2023-03-22T16:18:27.221Z,4.492
2023-03-22T16:22:30.488Z,5.896
2023-03-22T16:24:31.387Z,6.739
2023-03-22T16:28:34.341Z,3.369
2023-03-22T16:34:38.647Z,5.054
2023-03-22T16:35:22.407Z,1.965
2023-03-22T16:39:25.602Z,3.51
2023-03-22T16:45:29.175Z,2.386
2023-03-22T16:49:32.158Z,2.808
2023-03-22T16:55:35.362Z,1.123
2023-03-22T16:59:38.413Z,4.212
2023-03-22T17:01:39.976Z,3.79
2023-03-22T17:05:43.340Z,5.054
2023-03-22T17:11:47.100Z,4.914
2023-03-22T17:17:51.311Z,4.071
2023-03-22T17:21:53.600Z,3.369
2023-03-22T17:27:58.473Z,4.352
2023-03-22T17:32:04.033Z,3.51
2023-03-22T17:34:03.763Z,1.965
2023-03-22T17:38:08.332Z,4.633
2023-03-22T17:42:09.447Z,1.825
2023-03-22T17:44:10.742Z,2.527
2023-03-22T17:48:13.990Z,0.421
2023-03-22T17:54:52.407Z,0.842
2023-03-22T17:58:34.863Z,3.931
2023-03-22T18:00:21.247Z,0.14
2023-03-22T18:04:23.417Z,1.965
2023-03-22T18:10:27.759Z,2.667
2023-03-22T18:14:35.764Z,1.825
2023-03-22T18:16:52.627Z,0
2023-03-22T18:20:55.199Z,2.386
2023-03-22T18:24:39.438Z,0.842
2023-03-22T18:26:45.731Z,1.544
2023-03-22T18:30:43.827Z,2.246
2023-03-22T18:36:47.550Z,0.28
2023-03-22T18:41:20.355Z,0.561
2023-03-22T18:42:51.213Z,0
2023-03-22T18:46:54.587Z,1.263
2023-03-22T18:57:01.133Z,0
2023-03-22T18:59:02.031Z,0
2023-03-22T19:03:04.855Z,4.352
2023-03-22T19:07:15.800Z,0
2023-03-22T19:09:09.258Z,0.982
2023-03-22T19:13:11.588Z,2.246
2023-03-22T19:17:14.571Z,0.561
2023-03-22T19:19:16.386Z,0.982
2023-03-22T19:23:18.747Z,0.28
2023-03-22T19:25:20.371Z,1.684
2023-03-22T19:27:24.866Z,0
2023-03-22T19:29:22.829Z,0.14
2023-03-22T19:35:27.092Z,2.106
2023-03-22T19:37:28.800Z,0.14
2023-03-22T19:45:33.288Z,0
2023-03-22T19:51:37.401Z,0.14
2023-03-22T19:55:40.455Z,0.14
2023-03-22T19:57:42.251Z,0
2023-03-22T20:01:45.079Z,0.561
2023-03-22T20:05:50.758Z,0
2023-03-22T20:07:48.814Z,0.14
2023-03-22T20:11:51.105Z,0
2023-03-22T20:17:55.006Z,1.965
2023-03-22T20:21:58.316Z,0.14
2023-03-22T20:24:00.117Z,0
2023-03-22T20:28:02.255Z,0
2023-03-22T20:34:06.055Z,0.561
2023-03-22T20:38:08.793Z,1.404
2023-03-22T20:40:10.683Z,0
2023-03-22T20:44:13.821Z,0
2023-03-22T20:48:16.783Z,1.684
2023-03-22T20:50:18.229Z,0.14
2023-03-22T20:54:21.488Z,0
2023-03-22T20:58:23.754Z,0
2023-03-22T21:00:25.404Z,0
2023-03-22T21:04:28.290Z,0
2023-03-22T21:06:30.046Z,0.842
2023-03-22T21:08:31.056Z,0
2023-03-22T21:10:32.053Z,0.421
2023-03-22T21:16:36.764Z,0
2023-03-22T21:22:40.783Z,0.702
2023-03-22T21:26:43.502Z,1.684
2023-03-22T21:32:47.516Z,0.28
2023-03-22T21:36:50.557Z,0
2023-03-22T21:38:51.803Z,0
2023-03-22T21:42:54.462Z,0
2023-03-22T21:46:56.933Z,0
2023-03-22T21:48:58.439Z,0
2023-03-22T21:53:01.710Z,0
2023-03-22T21:59:05.438Z,2.246
2023-03-22T22:05:09.169Z,0
2023-03-22T22:07:10.781Z,0.14
2023-03-22T22:09:12.400Z,0
2023-03-22T22:15:17.269Z,0.561
2023-03-22T22:19:20.066Z,0.14
2023-03-22T22:21:21.198Z,0
2023-03-22T22:25:24.378Z,0
2023-03-22T22:29:27.429Z,0
2023-03-22T22:31:28.506Z,0
2023-03-22T22:35:31.658Z,0
2023-03-22T22:41:36.974Z,0
2023-03-22T22:47:41.502Z,3.088
2023-03-22T22:51:44.185Z,2.106
2023-03-22T22:53:45.177Z,2.948
2023-03-22T22:57:47.916Z,0
2023-03-22T23:01:50.778Z,1.404
2023-03-22T23:03:52.444Z,2.386
2023-03-22T23:07:54.412Z,0.702
2023-03-22T23:14:00.412Z,2.246
2023-03-22T23:20:03.934Z,0.14
2023-03-22T23:20:47.655Z,0.14
2023-03-22T23:24:50.958Z,0
2023-03-22T23:28:53.658Z,2.246
2023-03-22T23:30:54.851Z,2.246
2023-03-22T23:34:57.470Z,2.386
2023-03-22T23:39:00.971Z,0.14
2023-03-22T23:41:02.152Z,3.088
2023-03-22T23:45:05.208Z,1.263
2023-03-22T23:51:09.768Z,1.825
2023-03-22T23:55:13.011Z,1.404
2023-03-22T23:57:14.228Z,0
